• Join FlightAware (Why Join?)
  • Login
  • US Flag 
Rudolph Flight #1: Arrived! 
10:27AM EST


 

Airport Tracker/Info


-or-


 

Live Flight TrackerFlight Track Log ✈ SWA2058 ✈ 13-Apr-2013 ✈ KSAN - KHOU

Flight Track Log - Related Links

Times and Time Zones

All times are in EDT time to prevent confusion due to time zone crossing. See the SWA2058 flight status page for this flight to view local times or setup timezone preferences in your user account.

Time Position Orientation Groundspeed Altitude Reporting Facility
EDT Latitude Longitude Course Direction KTS MPH feet Rate Location/Type
12:00PM 32.7567 -117.2850 277° West 198 228 3,000  Level Los Angeles Center
12:01PM 32.7064 -117.3194 210° Southwest 239 275 5,400 3,300 Climbing Los Angeles Center
12:02PM 32.6494 -117.2342 128° Southeast 286 329 9,900 3,180 Climbing Los Angeles Center
12:03PM 32.6331 -117.1272 100° East 323 372 12,000 2,520 Climbing Los Angeles Center
12:04PM 32.6150 -117.0086 100° East 355 409 15,200 2,820 Climbing Los Angeles Center
12:05PM 32.6203 -116.8819 87° East 384 442 17,800 2,520 Climbing Los Angeles Center
12:06PM 32.6331 -116.7503 83° East 404 465 20,400 2,460 Climbing Los Angeles Center
12:07PM 32.6461 -116.6156 83° East 415 478 22,900 2,460 Climbing Los Angeles Center
12:08PM 32.6611 -116.4503 84° East 423 487 25,500 2,100 Climbing Los Angeles Center
12:09PM 32.6756 -116.3061 83° East 444 511 27,300 1,620 Climbing Los Angeles Center
12:10PM 32.6897 -116.1586 83° East 455 524 28,900 1,380 Climbing Los Angeles Center
12:11PM 32.7036 -116.0044 84° East 472 543 30,500 2,040 Climbing Los Angeles Center
12:12PM 32.7236 -115.7936 84° East 461 531 33,600 2,160 Climbing Los Angeles Center
12:13PM 32.7361 -115.6447 84° East 455 524 35,000 1,320 Climbing Los Angeles Center
12:14PM 32.7503 -115.4961 83° East 454 522 36,400 960 Climbing Los Angeles Center
12:15PM 32.7542 -115.3464 88° East 456 525 37,000 240 Climbing Los Angeles Center
12:16PM 32.7589 -115.1928 88° East 465 535 37,000  Level Los Angeles Center
12:17PM 32.7617 -115.0428 89° East 457 526 37,000  Level Los Angeles Center
12:18PM 32.7672 -114.8931 87° East 454 522 37,000  Level Los Angeles Center
12:19PM 32.7683 -114.7117 90° East 458 527 37,000  Level Los Angeles Center
12:21PM 32.7703 -114.5606 89° East 458 527 37,000  Level Los Angeles Center
12:22PM 32.7731 -114.4111 89° East 456 525 37,000  Level Los Angeles Center
12:23PM 32.7744 -114.2603 89° East 456 525 37,000  Level Los Angeles Center
12:24PM 32.7775 -114.1097 89° East 456 525 37,000  Level Los Angeles Center
12:24PM 32.7764 -114.0681 92° East 457 526 37,000  Level Albuquerque Center
12:25PM 32.7828 -113.9197 87° East 453 521 37,000  Level Albuquerque Center
12:26PM 32.8053 -113.7733 80° East 449 517 37,000  Level Albuquerque Center
12:27PM 32.8253 -113.6269 81° East 449 517 37,000  Level Albuquerque Center
12:28PM 32.8511 -113.4500 80° East 451 519 37,000  Level Albuquerque Center
12:29PM 32.8717 -113.3011 81° East 452 520 37,000  Level Albuquerque Center
12:30PM 32.8925 -113.1519 81° East 454 522 37,000  Level Albuquerque Center
12:31PM 32.9119 -113.0036 81° East 452 520 37,000  Level Albuquerque Center
12:32PM 32.9325 -112.8556 81° East 451 519 37,000  Level Albuquerque Center
12:33PM 32.9511 -112.7075 81° East 450 518 37,000  Level Albuquerque Center
12:34PM 32.9381 -112.5558 96° East 473 544 37,000  Level Albuquerque Center
12:35PM 32.9150 -112.4025 100° East 471 542 37,000  Level Albuquerque Center
12:36PM 32.8872 -112.2214 100° East 464 534 37,000  Level Albuquerque Center
12:37PM 32.8653 -112.0753 100° East 463 533 37,000  Level Albuquerque Center
12:38PM 32.8425 -111.9283 100° East 458 527 37,000  Level Albuquerque Center
12:39PM 32.8183 -111.7789 101° East 461 531 37,000  Level Albuquerque Center
12:40PM 32.7956 -111.6331 100° East 454 522 37,000  Level Albuquerque Center
12:41PM 32.7717 -111.4881 101° East 451 519 37,000  Level Albuquerque Center
12:42PM 32.7442 -111.3139 101° East 450 518 37,000  Level Albuquerque Center
12:43PM 32.7206 -111.1689 101° East 449 517 37,000  Level Albuquerque Center
12:44PM 32.6958 -111.0247 101° East 448 516 37,000  Level Albuquerque Center
12:46PM 32.6725 -110.8778 101° East 452 520 37,000  Level Albuquerque Center
12:47PM 32.6486 -110.7350 101° East 447 514 37,000  Level Albuquerque Center
12:48PM 32.6250 -110.5900 101° East 448 516 37,000 360 Level Albuquerque Center
12:49PM 32.5964 -110.4147 101° East 450 518 37,800 900 Climbing Albuquerque Center
12:50PM 32.5700 -110.2733 102° East 450 518 38,900 540 Climbing Albuquerque Center
12:51PM 32.5458 -110.1308 101° East 447 514 39,000  Climbing Albuquerque Center
12:52PM 32.5200 -109.9864 102° East 451 519 39,000  Level Albuquerque Center
12:53PM 32.4950 -109.8428 102° East 452 520 39,000  Level Albuquerque Center
12:54PM 32.4647 -109.6719 102° East 449 517 39,000  Level Albuquerque Center
12:55PM 32.4372 -109.5256 103° East 456 525 39,000  Level Albuquerque Center
12:56PM 32.4122 -109.3831 102° East 451 519 39,000  Level Albuquerque Center
12:57PM 32.3872 -109.2406 102° East 449 517 39,000  Level Albuquerque Center
12:58PM 32.3553 -109.0678 102° East 452 520 39,000  Level Albuquerque Center
12:59PM 32.3294 -108.9247 102° East 453 521 39,000  Level Albuquerque Center
01:00PM 32.3025 -108.7794 102° East 456 525 39,000  Level Albuquerque Center
01:01PM 32.2761 -108.6350 102° East 456 525 39,000  Level Albuquerque Center
01:02PM 32.2444 -108.4592 102° East 460 529 39,000  Level Albuquerque Center
01:03PM 32.2186 -108.3247 103° East 464 534 39,000  Level Albuquerque Center
01:04PM 32.1900 -108.1767 103° East 465 535 39,000  Level Albuquerque Center
01:05PM 32.1561 -107.9981 103° East 467 537 39,000  Level Albuquerque Center
01:06PM 32.1281 -107.8469 102° East 472 543 39,000  Level Albuquerque Center
01:07PM 32.0994 -107.6958 103° East 474 545 39,000  Level Albuquerque Center
01:08PM 32.0703 -107.5456 103° East 476 548 39,000  Level Albuquerque Center
01:09PM 32.0406 -107.3947 103° East 476 548 39,000  Level Albuquerque Center
01:10PM 32.0053 -107.2136 103° East 478 550 39,000  Level Albuquerque Center
01:11PM 31.9764 -107.0639 103° East 475 547 39,000  Level Albuquerque Center
01:12PM 31.9461 -106.9172 104° East 468 539 39,000  Level Albuquerque Center
01:13PM 31.9169 -106.7700 103° East 466 536 39,000  Level Albuquerque Center
01:14PM 31.8858 -106.6233 104° East 465 535 39,000  Level Albuquerque Center
01:15PM 31.8522 -106.4522 103° East 468 539 39,000  Level Albuquerque Center
01:16PM 31.8219 -106.3036 103° East 469 540 39,000  Level Albuquerque Center
01:18PM 31.8003 -106.1556 100° East 460 529 39,000  Level Albuquerque Center
01:19PM 31.7822 -106.0075 98° East 459 528 39,000  Level Albuquerque Center
01:20PM 31.7639 -105.8592 98° East 459 528 39,000  Level Albuquerque Center
01:21PM 31.7428 -105.6811 98° East 459 528 39,000  Level Albuquerque Center
01:22PM 31.7247 -105.5314 98° East 463 533 39,000  Level Albuquerque Center
01:23PM 31.7058 -105.3825 98° East 462 532 39,000  Level Albuquerque Center
01:24PM 31.6872 -105.2328 98° East 462 532 39,000  Level Albuquerque Center
01:25PM 31.6683 -105.0825 98° East 463 533 39,000  Level Albuquerque Center
01:26PM 31.6500 -104.9317 98° East 466 536 39,000  Level Albuquerque Center
01:27PM 31.6306 -104.7786 98° East 469 540 39,000  Level Albuquerque Center
01:28PM 31.6072 -104.5969 99° East 469 540 39,000  Level Albuquerque Center
01:29PM 31.5872 -104.4453 99° East 469 540 39,000  Level Albuquerque Center
01:30PM 31.5669 -104.2944 99° East 469 540 39,000  Level Albuquerque Center
01:31PM 31.5472 -104.1422 99° East 470 541 39,000  Level Albuquerque Center
01:32PM 31.5272 -103.9914 99° East 470 541 39,000  Level Albuquerque Center
01:33PM 31.5078 -103.8408 99° East 468 539 39,000  Level Albuquerque Center
01:34PM 31.4819 -103.6597 99° East 473 544 39,000  Level Albuquerque Center
01:35PM 31.4600 -103.5067 100° East 476 548 39,000  Level Albuquerque Center
01:36PM 31.4411 -103.3506 98° East 481 554 39,000  Level Albuquerque Center
01:37PM 31.4231 -103.1950 98° East 483 556 39,000  Level Albuquerque Center
01:38PM 31.4025 -103.0403 99° East 484 557 39,000  Level Albuquerque Center
01:39PM 31.3831 -102.8850 98° East 484 557 39,000  Level Albuquerque Center
01:40PM 31.3597 -102.6992 98° East 482 555 39,000  Level Albuquerque Center
01:41PM 31.3397 -102.5461 99° East 479 551 39,000  Level Albuquerque Center
01:42PM 31.3214 -102.3969 98° East 488 562 39,000  Level Albuquerque Center
01:43PM 31.3000 -102.2439 99° East 484 557 39,000  Level Albuquerque Center
01:44PM 31.2758 -102.0586 99° East 483 556 39,000  Level Albuquerque Center
01:45PM 31.2556 -101.9100 99° East 483 556 39,000  Level Albuquerque Center
01:46PM 31.2347 -101.7547 99° East 483 556 39,000  Level Albuquerque Center
01:48PM 31.2008 -101.5058 99° East 485 558 39,000  Level Houston Center
01:49PM 31.1794 -101.3486 99° East 489 563 39,000  Level Houston Center
01:50PM 31.1567 -101.1886 99° East 491 565 39,000  Level Houston Center
01:51PM 31.1300 -100.9969 99° East 497 572 39,000  Level Houston Center
01:52PM 31.1075 -100.8375 99° East 497 572 39,000  Level Houston Center
01:53PM 31.0847 -100.6764 99° East 501 577 39,000  Level Houston Center
01:54PM 31.0606 -100.5156 100° East 501 577 39,000  Level Houston Center
01:55PM 31.0367 -100.3519 100° East 507 583 39,000  Level Houston Center
01:56PM 31.0131 -100.1908 100° East 505 581 39,000  Level Houston Center
01:57PM 30.9886 -100.0278 100° East 508 585 39,000  Level Houston Center
01:58PM 30.9589 -99.8342 100° East 506 582 39,000  Level Houston Center
01:59PM 30.9361 -99.6742 99° East 502 578 39,000  Level Houston Center
02:01PM 30.9194 -99.5117 97° East 504 580 39,000  Level Houston Center
02:02PM 30.9011 -99.3486 97° East 507 583 39,000  Level Houston Center
02:03PM 30.8836 -99.1872 97° East 504 580 39,000  Level Houston Center
02:04PM 30.8644 -99.0186 98° East 504 580 39,000  Level Houston Center
02:05PM 30.8489 -98.8564 96° East 503 579 39,000  Level Houston Center
02:06PM 30.8250 -98.6647 98° East 507 583 39,000 -1,020 Level Houston Center
02:07PM 30.8058 -98.5014 98° East 506 582 37,000 -1,980 Descending Houston Center
02:08PM 30.7875 -98.3389 97° East 503 579 35,000 -1,020 Descending Houston Center
02:09PM 30.7686 -98.1753 98° East 506 582 35,000  Level Houston Center
02:10PM 30.7503 -98.0111 97° East 508 585 35,000  Level Houston Center
02:11PM 30.7308 -97.8478 98° East 508 585 35,000  Level Houston Center
02:12PM 30.7097 -97.6836 98° East 509 586 35,000  Level Houston Center
02:13PM 30.6872 -97.4939 98° East 510 587 35,000 -360 Level Houston Center
02:14PM 30.6681 -97.3347 98° East 501 577 34,300 -2,160 Descending Houston Center
02:15PM 30.6386 -97.1786 102° East 496 571 30,600 -2,940 Descending Houston Center
02:16PM 30.5786 -97.0406 117° Southeast 480 552 28,200 -2,400 Descending Houston Center
02:17PM 30.5192 -96.9047 117° Southeast 472 543 25,700 -3,060 Descending Houston Center
02:18PM 30.4500 -96.7481 117° Southeast 465 535 22,000 -3,060 Descending Houston Center
02:19PM 30.3928 -96.6231 118° Southeast 436 502 19,400 -2,340 Descending Houston Center
02:20PM 30.3397 -96.5028 117° Southeast 416 479 17,200 -2,400 Descending Houston Center
02:21PM 30.2958 -96.4036 117° Southeast 384 442 14,900 -2,220 Descending Houston Center
02:22PM 30.2442 -96.2911 118° Southeast 355 409 12,600 -1,800 Descending Houston Center
02:23PM 30.1922 -96.2000 123° Southeast 333 383 11,000 -780 Descending Houston Center
02:24PM 30.1122 -96.1578 155° Southeast 326 375 11,000  Level Houston Center
02:25PM 30.0144 -96.1042 155° Southeast 322 371 11,000 -60 Level Houston Center
02:26PM 29.9344 -96.0625 156° South 318 366 10,900 -60 Descending Houston Center
02:27PM 29.8561 -96.0203 155° Southeast 312 359 10,900 -300 Level Houston Center
02:28PM 29.7703 -95.9756 156° South 311 358 10,400 -480 Descending Houston Center
02:29PM 29.6947 -95.9197 147° Southeast 302 348 10,000 -840 Descending Houston Center
02:31PM 29.6322 -95.8678 144° Southeast 283 326 8,700 -1,380 Descending Houston Center
02:32PM 29.6003 -95.7839 114° Southeast 286 329 7,200 -1,260 Descending Houston Center
02:33PM 29.5697 -95.7047 114° Southeast 275 316 6,100 -660 Descending Houston Center
02:34PM 29.5372 -95.6181 113° Southeast 262 302 5,900 -360 Descending Houston Center
02:35PM 29.5114 -95.5417 111° Southeast 234 269 5,400 -540 Descending Houston Center
02:36PM 29.5053 -95.4728 96° East 194 223 4,800 -960 Descending Houston Center
02:37PM 29.5236 -95.4186 69° East 194 223 3,500 -1,320 Descending Houston Center
02:38PM 29.5553 -95.3756 50° Northeast 184 212 2,300 -1,200 Descending Houston Center
02:39PM 29.5894 -95.3378 44° Northeast 153 176 1,300 -840 Descending Houston Center
02:40PM 29.6183 -95.3081 42° Northeast 133 153 600 15,060 Descending Houston Center
02:41PM 29.6478 -95.2758 44° Northeast 141 162 35,000 28,260 Climbing Houston Center
02:43PM 29.6454 -95.2789 115° Southeast  Level Estimated